Rowsburg, Ohio
Current Conditions -  °F | °C
As of 8:37 PM on Sunday 23 Nov 2014 (Local Time) from KMFD Reporting Station
Light Rain Light Rain  
Wind Chill: 52°   Ceiling: 3900
Heat Index: 52°   Visibility: 6mi
Dew Point: 50°   Wind: 22mph
Humidity: 93%   Direction: 130°SE
Pressure: 29.51"   Gusts: 31mph
Location:  40.9196°N, 82.2006°W
Report Text: KMFD 240137Z 13019G27KT 6SM -RA BR FEW011 SCT018 OVC039 11/10 A2951 RMK AO2 PK WND 14029/0100 PRESFR P0005 T01110100
Loading
Personal Weather Stations






























Interactive Weather Map New forecast layout! Learn more

10-Day Weather Forecast

Advertisements
Track Severe Weather on mobile